Time;durP1;ratioP1;P1;durP2;ratioP2;P2;SDS_P1;SDS_P2;PMS_P1;PMS_P2;Temp;Humidity;BMP_temperature;BMP_pressure;BME280_temperature;BME280_humidity;BME280_pressure;Samples;Min_cycle;Max_cycle;Signal;HPM_P1;HPM_P2
2023/01/06 00:00:00;;;;;;;6.10;3.67;;;10.00;99.90;;;;;;10041046;29;20757;-91
2023/01/06 00:05:06;;;;;;;7.77;3.43;;;10.60;99.90;;;;;;10056955;29;20630;-92
2023/01/06 00:10:10;;;;;;;4.90;2.87;;;10.90;99.90;;;;;;10049225;29;20249;-91
2023/01/06 00:15:14;;;;;;;6.80;4.43;;;10.90;99.90;;;;;;10054679;29;20272;-91
2023/01/06 00:20:17;;;;;;;5.67;3.70;;;10.80;99.90;;;;;;10039341;29;20627;-91
2023/01/06 00:25:20;;;;;;;6.93;3.57;;;10.80;99.90;;;;;;10054844;29;20249;-91
2023/01/06 00:30:22;;;;;;;7.63;3.13;;;10.50;99.90;;;;;;10055381;29;20262;-91
2023/01/06 00:35:28;;;;;;;5.87;3.93;;;10.50;99.90;;;;;;10039155;29;20325;-91
2023/01/06 00:40:30;;;;;;;5.53;3.30;;;10.70;99.90;;;;;;10054533;29;20245;-91
2023/01/06 00:45:33;;;;;;;9.00;3.80;;;10.80;99.90;;;;;;10055392;29;20633;-91
2023/01/06 00:50:36;;;;;;;6.37;3.40;;;10.80;99.90;;;;;;10038570;29;20722;-91
2023/01/06 00:55:39;;;;;;;6.67;3.40;;;10.70;99.90;;;;;;10054304;29;20261;-90
2023/01/06 01:00:42;;;;;;;11.53;3.77;;;9.80;99.90;;;;;;10038548;29;20286;-91
2023/01/06 01:05:45;;;;;;;5.90;3.80;;;9.70;99.90;;;;;;10015006;29;20242;-92
2023/01/06 01:10:47;;;;;;;4.27;2.93;;;9.70;99.90;;;;;;10016209;29;20635;-91
2023/01/06 01:15:50;;;;;;;3.37;2.60;;;8.80;99.90;;;;;;10032894;29;20257;-91
2023/01/06 01:20:53;;;;;;;6.20;3.23;;;8.30;99.90;;;;;;10053351;29;20301;-91
2023/01/06 01:25:58;;;;;;;8.83;3.60;;;8.30;99.90;;;;;;10053189;29;20313;-91
2023/01/06 01:31:02;;;;;;;9.03;4.10;;;7.90;99.90;;;;;;10036595;29;20246;-91
2023/01/06 01:36:06;;;;;;;8.63;4.03;;;8.20;99.90;;;;;;10053301;29;20313;-91
2023/01/06 01:41:15;;;;;;;6.20;3.97;;;7.40;99.90;;;;;;10053139;29;20266;-91
2023/01/06 01:46:41;;;;;;;7.87;3.80;;;7.60;99.90;;;;;;10034756;29;20298;-90
2023/01/06 01:51:48;;;;;;;5.80;3.53;;;7.20;99.90;;;;;;10035959;29;20317;-91
2023/01/06 01:57:05;;;;;;;6.53;4.23;;;6.90;99.90;;;;;;10035397;29;20294;-91
2023/01/06 02:02:08;;;;;;;8.37;3.70;;;6.50;99.90;;;;;;10020536;29;20244;-91
2023/01/06 02:07:11;;;;;;;4.87;2.83;;;6.50;99.90;;;;;;10052331;29;20269;-91
2023/01/06 02:12:15;;;;;;;5.60;3.40;;;7.30;99.90;;;;;;10034780;29;20241;-91
2023/01/06 02:17:18;;;;;;;4.40;3.43;;;6.70;99.90;;;;;;10033790;29;20269;-92
2023/01/06 02:22:44;;;;;;;7.07;3.00;;;6.10;99.90;;;;;;10035590;29;20269;-92
2023/01/06 02:28:23;;;;;;;4.27;3.57;;;5.40;99.90;;;;;;10036393;29;20329;-93
2023/01/06 02:33:55;;;;;;;7.50;4.10;;;5.90;99.90;;;;;;10051983;29;20245;-92
2023/01/06 02:39:11;;;;;;;6.90;3.47;;;5.30;99.90;;;;;;10035162;29;20229;-92
2023/01/06 02:44:27;;;;;;;6.27;4.23;;;5.30;99.90;;;;;;10051427;29;20243;-92
2023/01/06 02:49:52;;;;;;;7.67;4.00;;;5.20;99.90;;;;;;10050390;29;20690;-92
2023/01/06 02:55:01;;;;;;;5.10;3.77;;;5.20;99.90;;;;;;10038233;29;20271;-91
2023/01/06 03:00:20;;;;;;;7.50;3.70;;;5.20;99.90;;;;;;10042312;29;20245;-92
2023/01/06 03:05:24;;;;;;;7.13;4.10;;;5.30;99.90;;;;;;10057890;29;20297;-92
2023/01/06 03:10:28;;;;;;;10.00;4.57;;;5.60;99.90;;;;;;10041674;29;20253;-91
2023/01/06 03:15:31;;;;;;;7.07;4.13;;;6.10;99.90;;;;;;10041773;29;20288;-92
2023/01/06 03:20:35;;;;;;;5.07;4.07;;;5.90;99.90;;;;;;10057992;29;20248;-90
2023/01/06 03:25:37;;;;;;;6.67;3.70;;;6.30;99.90;;;;;;10040581;29;20301;-90
2023/01/06 03:30:52;;;;;;;7.37;4.80;;;6.10;99.90;;;;;;10089428;29;20224;-90
2023/01/06 03:36:12;;;;;;;5.97;4.17;;;5.60;99.90;;;;;;10046793;29;20265;-90
2023/01/06 03:43:10;;;;;;;8.40;4.50;;;5.60;99.90;;;;;;10039560;29;20243;-90
2023/01/06 03:46:56;;;;;;;7.43;4.57;;;5.70;99.90;;;;;;10056786;29;20234;-90
2023/01/06 03:52:28;;;;;;;6.50;4.40;;;5.50;99.90;;;;;;10056710;29;20245;-91
2023/01/06 03:57:59;;;;;;;10.10;4.80;;;5.70;99.90;;;;;;10039587;29;20835;-90
2023/01/06 04:03:07;;;;;;;9.03;4.97;;;5.60;99.90;;;;;;10057360;29;20289;-91
2023/01/06 04:08:11;;;;;;;7.67;4.87;;;6.00;99.90;;;;;;10077078;29;20627;-90
2023/01/06 04:13:15;;;;;;;8.57;4.90;;;6.30;99.90;;;;;;10073016;29;20682;-90
2023/01/06 04:18:19;;;;;;;8.83;5.23;;;5.90;99.90;;;;;;10092673;29;20300;-90
2023/01/06 04:23:23;;;;;;;10.67;5.23;;;5.90;99.90;;;;;;10069799;29;20208;-90
2023/01/06 04:28:25;;;;;;;15.03;6.97;;;5.90;99.90;;;;;;10086247;29;20300;-91
2023/01/06 04:33:29;;;;;;;14.30;6.10;;;6.20;99.90;;;;;;10076205;29;20213;-91
2023/01/06 04:38:35;;;;;;;11.70;5.77;;;5.80;99.90;;;;;;10077972;29;20257;-90
2023/01/06 04:43:40;;;;;;;11.63;5.87;;;6.00;99.90;;;;;;10079330;29;20206;-90
2023/01/06 04:48:43;;;;;;;11.67;5.27;;;5.80;99.90;;;;;;10092678;29;20213;-90
2023/01/06 04:53:46;;;;;;;9.97;5.50;;;5.60;99.90;;;;;;10093421;29;20718;-90
2023/01/06 04:58:58;;;;;;;10.13;5.77;;;5.90;99.90;;;;;;10092694;29;20266;-91
2023/01/06 05:04:06;;;;;;;9.50;4.90;;;5.60;99.90;;;;;;10054162;29;20232;-90
2023/01/06 05:09:10;;;;;;;11.10;5.07;;;5.60;99.90;;;;;;10076615;29;20292;-91
2023/01/06 05:14:13;;;;;;;7.70;4.67;;;5.70;99.90;;;;;;10072149;29;20245;-90
2023/01/06 05:19:15;;;;;;;5.00;3.00;;;5.60;99.90;;;;;;10037246;29;20210;-90
2023/01/06 05:24:18;;;;;;;3.57;2.40;;;6.80;99.90;;;;;;10053492;29;20296;-90
2023/01/06 05:29:20;;;;;;;5.07;3.30;;;7.10;99.90;;;;;;10052558;29;20341;-90
2023/01/06 05:34:23;;;;;;;3.13;2.47;;;6.40;99.90;;;;;;10036901;29;20271;-90
2023/01/06 05:39:26;;;;;;;5.00;3.23;;;6.30;99.90;;;;;;10052871;29;20240;-90
2023/01/06 05:44:28;;;;;;;4.37;2.80;;;6.00;99.90;;;;;;10052879;29;20294;-90
2023/01/06 05:49:31;;;;;;;3.83;2.40;;;5.70;99.90;;;;;;10036843;29;20239;-90
2023/01/06 05:54:33;;;;;;;4.40;2.73;;;5.90;99.90;;;;;;10051247;29;20242;-90
2023/01/06 05:59:36;;;;;;;3.30;2.77;;;5.80;99.90;;;;;;10052915;29;20284;-90
2023/01/06 06:04:38;;;;;;;4.33;2.93;;;5.70;99.90;;;;;;10052091;29;20260;-90
2023/01/06 06:09:41;;;;;;;3.33;2.67;;;5.60;99.90;;;;;;10052364;29;20349;-90
2023/01/06 06:14:44;;;;;;;5.93;3.70;;;5.60;99.90;;;;;;10016884;29;20264;-90
2023/01/06 06:19:46;;;;;;;3.50;3.10;;;6.20;99.90;;;;;;10024074;29;20313;-90
2023/01/06 06:24:49;;;;;;;2.90;2.53;;;6.60;99.90;;;;;;10036085;29;20331;-91
2023/01/06 06:29:51;;;;;;;5.97;3.20;;;6.10;99.90;;;;;;9998404;29;20683;-89
2023/01/06 06:34:54;;;;;;;3.57;2.97;;;6.10;99.90;;;;;;10025026;29;20310;-90
2023/01/06 06:39:57;;;;;;;5.93;3.07;;;6.20;99.90;;;;;;10050908;29;20651;-90
2023/01/06 06:44:59;;;;;;;4.70;3.40;;;6.50;99.90;;;;;;10051622;29;20281;-90
2023/01/06 06:50:02;;;;;;;4.27;2.93;;;6.50;99.90;;;;;;10051528;29;20241;-90
2023/01/06 06:55:05;;;;;;;5.53;2.73;;;6.40;99.90;;;;;;10034743;29;20320;-90
2023/01/06 07:00:08;;;;;;;4.23;2.90;;;6.20;99.90;;;;;;10051257;29;20225;-90
2023/01/06 07:05:11;;;;;;;6.67;3.50;;;6.00;99.90;;;;;;10050116;29;20315;-90
2023/01/06 07:10:15;;;;;;;6.33;4.13;;;5.90;99.90;;;;;;10034775;29;20299;-90
2023/01/06 07:15:18;;;;;;;6.40;3.43;;;6.50;99.90;;;;;;10051192;29;20302;-90
2023/01/06 07:20:20;;;;;;;5.13;3.87;;;6.40;99.90;;;;;;10050853;29;20237;-90
2023/01/06 07:25:23;;;;;;;5.17;3.10;;;6.30;99.90;;;;;;10050470;29;20251;-90
2023/01/06 07:30:26;;;;;;;3.27;2.90;;;6.80;99.90;;;;;;10049793;29;20316;-91
2023/01/06 07:35:29;;;;;;;8.47;4.87;;;7.50;99.90;;;;;;10049835;29;20295;-90
2023/01/06 07:40:32;;;;;;;6.43;4.07;;;7.10;99.90;;;;;;10053651;29;20246;-90
2023/01/06 07:45:35;;;;;;;8.27;5.63;;;7.70;99.90;;;;;;10041066;29;20705;-90
2023/01/06 07:50:37;;;;;;;10.13;6.80;;;7.10;99.90;;;;;;10057436;29;20285;-90
2023/01/06 07:55:40;;;;;;;5.80;4.30;;;7.20;99.90;;;;;;10056134;29;20263;-91
2023/01/06 08:00:43;;;;;;;5.57;3.73;;;7.00;99.90;;;;;;10056780;29;20242;-90
2023/01/06 08:05:45;;;;;;;6.87;5.07;;;8.30;99.90;;;;;;10039825;29;20293;-90
2023/01/06 08:10:48;;;;;;;7.93;5.03;;;8.30;99.90;;;;;;10038838;29;20239;-90
2023/01/06 08:15:51;;;;;;;4.87;2.73;;;8.20;99.90;;;;;;10056191;29;20316;-90
2023/01/06 08:21:02;;;;;;;10.93;5.13;;;8.60;99.90;;;;;;10056515;29;20285;-91
2023/01/06 08:26:13;;;;;;;4.33;2.57;;;8.30;99.90;;;;;;10055620;29;20306;-89
2023/01/06 08:31:20;;;;;;;5.50;4.00;;;8.70;99.90;;;;;;10055099;29;20243;-91
2023/01/06 08:36:23;;;;;;;8.10;5.03;;;9.00;99.90;;;;;;10055415;29;20720;-90
2023/01/06 08:41:26;;;;;;;4.57;4.03;;;9.30;99.90;;;;;;10039259;29;20226;-91
2023/01/06 08:46:28;;;;;;;6.70;3.60;;;10.00;99.90;;;;;;10055729;29;20245;-90
2023/01/06 08:51:31;;;;;;;3.77;2.47;;;9.70;99.90;;;;;;10053841;29;20241;-91
2023/01/06 08:56:39;;;;;;;3.60;2.73;;;10.30;99.90;;;;;;10054859;29;20260;-91
2023/01/06 09:01:42;;;;;;;6.07;4.07;;;11.10;99.90;;;;;;10090817;29;20245;-91
2023/01/06 09:06:46;;;;;;;4.10;3.70;;;10.90;99.90;;;;;;10089339;29;20241;-91
2023/01/06 09:11:48;;;;;;;9.60;4.17;;;10.60;99.90;;;;;;10075854;29;20236;-91
2023/01/06 09:16:51;;;;;;;3.37;2.37;;;11.30;99.90;;;;;;10053798;29;20265;-92
2023/01/06 09:21:53;;;;;;;7.40;4.63;;;11.70;99.90;;;;;;10052240;29;20232;-91
2023/01/06 09:26:56;;;;;;;5.80;4.40;;;11.40;99.90;;;;;;10037250;29;20745;-90
2023/01/06 09:31:59;;;;;;;5.10;3.10;;;11.30;99.90;;;;;;10037370;29;20245;-90
2023/01/06 09:37:01;;;;;;;6.07;4.30;;;11.40;99.90;;;;;;10053377;29;20270;-89
2023/01/06 09:42:26;;;;;;;4.83;2.80;;;10.90;99.90;;;;;;10052671;29;20285;-90
2023/01/06 09:47:35;;;;;;;4.10;2.97;;;11.90;99.90;;;;;;10055619;29;20768;-89
2023/01/06 09:53:07;;;;;;;4.83;3.53;;;12.10;99.90;;;;;;10041705;29;20278;-89
2023/01/06 09:58:21;;;;;;;6.57;4.70;;;11.10;99.90;;;;;;10042466;29;20269;-88
2023/01/06 10:03:26;;;;;;;2.43;2.17;;;10.90;99.90;;;;;;10050291;29;20293;-89
2023/01/06 10:08:40;;;;;;;4.20;2.70;;;11.80;99.90;;;;;;10049950;29;20349;-89
2023/01/06 10:13:55;;;;;;;3.43;2.50;;;12.20;99.90;;;;;;10056051;29;20237;-88
2023/01/06 10:19:16;;;;;;;6.17;2.80;;;11.60;99.90;;;;;;10034440;29;20264;-90
2023/01/06 10:24:45;;;;;;;3.97;3.40;;;12.00;99.90;;;;;;10049754;29;20282;-90
2023/01/06 10:29:50;;;;;;;6.50;4.93;;;11.90;99.90;;;;;;10021809;29;20277;-89
2023/01/06 10:34:52;;;;;;;7.97;6.87;;;11.10;99.60;;;;;;10048037;29;20270;-88
2023/01/06 10:40:02;;;;;;;9.73;8.83;;;10.10;95.10;;;;;;10049158;29;20328;-88
2023/01/06 10:45:10;;;;;;;12.10;8.43;;;;;;;;;;10059859;29;20269;-86
2023/01/06 10:50:15;;;;;;;8.00;5.27;;;5.40;99.90;;;;;;10057904;29;20238;-87
2023/01/06 10:55:24;;;;;;;8.33;5.17;;;;;;;;;;10036393;29;20243;-87
2023/01/06 11:00:27;;;;;;;7.87;4.97;;;9.20;99.90;;;;;;10052017;29;20652;-87
2023/01/06 11:05:32;;;;;;;9.87;5.50;;;9.50;99.90;;;;;;10051637;29;20224;-87
2023/01/06 11:10:52;;;;;;;8.27;4.80;;;10.40;99.90;;;;;;10034698;29;20218;-87
2023/01/06 11:15:55;;;;;;;5.67;4.93;;;10.80;99.90;;;;;;10057674;29;20253;-87
2023/01/06 11:21:05;;;;;;;8.03;5.20;;;10.90;99.90;;;;;;10057944;29;20266;-88
2023/01/06 11:26:13;;;;;;;11.00;5.40;;;11.80;97.90;;;;;;10064657;29;20305;-87
2023/01/06 11:31:25;;;;;;;9.40;6.80;;;11.10;98.40;;;;;;10080153;29;20240;-88
2023/01/06 11:36:32;;;;;;;8.03;6.57;;;10.90;93.80;;;;;;10079707;29;20256;-87
2023/01/06 11:41:37;;;;;;;10.47;7.50;;;10.40;97.80;;;;;;10095597;29;20658;-88
2023/01/06 11:46:47;;;;;;;7.63;5.30;;;10.30;99.80;;;;;;10096389;29;20257;-87
2023/01/06 11:51:57;;;;;;;8.67;6.53;;;10.10;99.90;;;;;;10079357;29;20244;-87
2023/01/06 11:57:01;;;;;;;7.00;5.33;;;10.90;99.70;;;;;;10097103;29;20328;-87
2023/01/06 12:02:12;;;;;;;10.47;8.63;;;10.10;99.90;;;;;;10096720;29;20257;-87
2023/01/06 12:07:31;;;;;;;9.20;4.40;;;9.80;99.90;;;;;;10078819;29;20244;-87
2023/01/06 12:12:34;;;;;;;10.13;7.73;;;10.20;99.90;;;;;;10094790;29;20247;-87
2023/01/06 12:17:43;;;;;;;11.10;6.57;;;10.70;99.90;;;;;;10094289;29;20261;-87
2023/01/06 12:22:53;;;;;;;11.37;8.90;;;10.70;99.90;;;;;;10094403;29;20248;-87
2023/01/06 12:28:17;;;;;;;13.90;7.93;;;11.10;99.90;;;;;;10093915;29;20738;-87
2023/01/06 12:33:31;;;;;;;26.27;9.83;;;10.70;99.90;;;;;;10055882;29;20764;-87
2023/01/06 12:38:55;;;;;;;36.50;11.70;;;11.40;99.90;;;;;;10037881;29;20325;-88
2023/01/06 12:44:45;;;;;;;27.67;15.10;;;12.00;97.00;;;;;;10055520;29;20285;-89
2023/01/06 12:49:56;;;;;;;25.43;13.37;;;11.40;95.20;;;;;;9991792;29;20845;-89
2023/01/06 12:54:59;;;;;;;28.63;15.23;;;9.60;99.90;;;;;;10005290;29;20251;-91
2023/01/06 13:00:11;;;;;;;20.03;10.83;;;9.60;99.90;;;;;;9995590;29;20313;-89
2023/01/06 13:05:22;;;;;;;22.70;12.93;;;10.40;99.90;;;;;;9974047;29;20250;-91
2023/01/06 13:10:43;;;;;;;15.97;10.37;;;9.90;99.90;;;;;;10002550;29;20264;-91
2023/01/06 13:15:46;;;;;;;22.37;10.90;;;10.00;99.90;;;;;;9963009;29;20242;-92
2023/01/06 13:21:06;;;;;;;23.87;10.13;;;9.70;99.90;;;;;;10017885;29;20316;-90
2023/01/06 13:26:27;;;;;;;16.73;9.47;;;9.20;99.90;;;;;;10069119;29;20260;-89
2023/01/06 13:31:51;;;;;;;21.17;9.83;;;9.30;99.90;;;;;;10042957;29;20240;-90
2023/01/06 13:37:12;;;;;;;17.73;9.63;;;;;;;;;;10050205;29;20245;-91
2023/01/06 13:42:27;;;;;;;22.90;10.93;;;9.40;99.90;;;;;;10052672;29;20306;-91
2023/01/06 13:47:30;;;;;;;19.07;9.83;;;9.40;99.90;;;;;;10054323;29;20241;-92
2023/01/06 13:52:32;;;;;;;14.43;10.77;;;9.40;99.90;;;;;;10052049;29;20241;-89
2023/01/06 13:57:38;;;;;;;33.30;19.87;;;9.40;99.90;;;;;;10049738;29;20261;-89
2023/01/06 14:02:41;;;;;;;20.57;12.13;;;9.30;99.90;;;;;;10041806;29;20244;-88
2023/01/06 14:07:50;;;;;;;20.30;14.57;;;9.00;99.90;;;;;;10051074;29;20651;-90
2023/01/06 14:12:54;;;;;;;20.00;14.30;;;9.00;99.90;;;;;;10050856;29;20253;-89
2023/01/06 14:18:01;;;;;;;16.90;11.80;;;8.90;99.90;;;;;;10049662;29;20337;-89
2023/01/06 14:23:13;;;;;;;19.87;14.03;;;8.60;99.90;;;;;;10042960;29;20234;-90
2023/01/06 14:28:18;;;;;;;18.17;13.33;;;8.70;99.90;;;;;;10030772;29;20266;-90
2023/01/06 14:33:34;;;;;;;20.57;14.70;;;9.00;99.90;;;;;;10045111;29;20253;-90
2023/01/06 14:38:46;;;;;;;23.50;16.87;;;8.80;99.90;;;;;;9697307;29;10001325;-89
2023/01/06 14:43:52;;;;;;;23.87;18.53;;;8.50;99.90;;;;;;10032182;29;20305;-90
2023/01/06 14:49:03;;;;;;;24.97;18.30;;;8.40;99.90;;;;;;10051318;29;20240;-91
2023/01/06 14:54:25;;;;;;;23.60;17.87;;;8.40;99.90;;;;;;10040580;29;20234;-93
2023/01/06 14:59:27;;;;;;;21.23;14.60;;;8.30;99.90;;;;;;10054889;29;20925;-92
2023/01/06 15:04:32;;;;;;;26.43;19.33;;;8.40;99.90;;;;;;10055487;29;20322;-92
2023/01/06 15:09:35;;;;;;;18.70;14.00;;;8.30;99.90;;;;;;10055523;29;20951;-91
2023/01/06 15:14:37;;;;;;;20.37;15.03;;;8.70;99.90;;;;;;10054424;29;20748;-92
2023/01/06 15:19:43;;;;;;;15.20;11.83;;;8.60;99.90;;;;;;10038495;29;20261;-92
2023/01/06 15:24:47;;;;;;;14.60;11.50;;;9.10;99.90;;;;;;10037570;29;20289;-90
2023/01/06 15:29:52;;;;;;;18.33;13.70;;;9.10;99.90;;;;;;10034342;29;20270;-91
2023/01/06 15:34:58;;;;;;;13.90;9.97;;;8.90;99.90;;;;;;10034888;29;20241;-92
2023/01/06 15:40:02;;;;;;;11.67;9.03;;;8.80;99.90;;;;;;10045596;29;20354;-93
2023/01/06 15:45:06;;;;;;;17.37;11.27;;;8.90;99.90;;;;;;10058888;29;20241;-92
2023/01/06 15:50:18;;;;;;;20.67;13.40;;;8.60;99.90;;;;;;10047286;29;20700;-93
2023/01/06 15:55:41;;;;;;;20.77;13.20;;;8.40;99.90;;;;;;10045840;29;20249;-91
2023/01/06 16:00:54;;;;;;;18.73;12.50;;;8.00;99.90;;;;;;10025044;29;20261;-93
2023/01/06 16:06:10;;;;;;;25.60;16.67;;;7.90;99.90;;;;;;10060093;29;20197;-94
2023/01/06 16:11:54;;;;;;;21.37;13.27;;;8.10;99.90;;;;;;10057439;29;20655;-94
2023/01/06 16:16:39;;;;;;;27.30;17.87;;;8.40;99.90;;;;;;10053444;29;20297;-93
2023/01/06 16:21:43;;;;;;;24.27;16.80;;;8.50;99.90;;;;;;10038037;29;20340;-93
2023/01/06 16:27:04;;;;;;;24.20;15.87;;;8.50;99.90;;;;;;10038569;29;20261;-93
2023/01/06 16:32:32;;;;;;;28.20;16.70;;;8.50;99.90;;;;;;10039676;29;20241;-92
2023/01/06 16:37:35;;;;;;;27.90;16.63;;;9.20;99.90;;;;;;10043128;29;20313;-92
2023/01/06 16:42:38;;;;;;;24.37;15.97;;;9.00;99.90;;;;;;10057338;29;20274;-92
2023/01/06 16:47:41;;;;;;;24.83;16.77;;;9.60;99.90;;;;;;10057962;29;20600;-94
2023/01/06 16:52:47;;;;;;;16.70;11.60;;;9.10;99.90;;;;;;10019849;29;20326;-93
2023/01/06 16:57:50;;;;;;;19.47;13.23;;;9.60;99.90;;;;;;10035804;29;20245;-94
2023/01/06 17:02:57;;;;;;;23.80;14.73;;;10.00;99.90;;;;;;10055866;29;20305;-93
2023/01/06 17:08:01;;;;;;;25.63;16.60;;;11.10;99.90;;;;;;10058354;29;20265;-93
2023/01/06 17:18:30;;;;;;;23.27;14.33;;;12.00;99.90;;;;;;10054976;29;20253;-91
2023/01/06 17:23:38;;;;;;;20.63;13.63;;;12.10;99.90;;;;;;10063278;29;20648;-91
2023/01/06 17:28:56;;;;;;;21.60;14.70;;;12.20;99.90;;;;;;10061224;29;20725;-94
2023/01/06 17:34:32;;;;;;;17.97;12.63;;;12.10;99.90;;;;;;10042263;29;20217;-94
2023/01/06 17:39:37;;;;;;;15.63;9.43;;;12.80;99.90;;;;;;10058964;29;20652;-94
2023/01/06 17:44:44;;;;;;;14.33;10.50;;;12.80;99.90;;;;;;10042968;29;20733;-93
2023/01/06 17:50:33;;;;;;;16.47;9.90;;;13.80;99.90;;;;;;10060040;29;20911;-96
2023/01/06 17:55:47;;;;;;;12.80;9.17;;;13.50;99.90;;;;;;10046702;29;20247;-94
2023/01/06 18:00:50;;;;;;;17.53;11.20;;;14.30;99.90;;;;;;10047980;29;20262;-93
2023/01/06 18:06:03;;;;;;;12.77;9.93;;;13.90;99.90;;;;;;10049717;29;20258;-95
2023/01/06 18:11:09;;;;;;;11.00;8.63;;;14.20;99.90;;;;;;10054704;29;20244;-94
2023/01/06 18:16:19;;;;;;;12.97;9.80;;;14.70;99.90;;;;;;10053474;29;20307;-95
2023/01/06 18:21:33;;;;;;;15.43;10.03;;;14.40;99.90;;;;;;10052488;29;20257;-93
2023/01/06 18:26:40;;;;;;;15.70;8.57;;;14.70;99.90;;;;;;10051423;29;20269;-92
2023/01/06 18:31:44;;;;;;;15.03;10.87;;;14.50;99.90;;;;;;10053470;29;20246;-93
2023/01/06 18:36:47;;;;;;;16.50;9.80;;;14.30;99.90;;;;;;10053178;29;20557;-93
2023/01/06 18:42:03;;;;;;;14.33;10.20;;;14.50;99.90;;;;;;10052054;29;20273;-92
2023/01/06 18:47:22;;;;;;;12.23;9.23;;;14.50;99.90;;;;;;10050548;29;20579;-93
2023/01/06 18:52:47;;;;;;;12.10;8.00;;;14.80;99.90;;;;;;10036332;29;20241;-93
2023/01/06 18:58:15;;;;;;;15.63;10.10;;;14.80;99.90;;;;;;10050176;29;20263;-93
2023/01/06 19:03:35;;;;;;;15.23;10.27;;;14.80;99.90;;;;;;10052945;29;20210;-93
2023/01/06 19:08:41;;;;;;;13.00;9.07;;;13.90;99.90;;;;;;10040683;29;20755;-88
2023/01/06 19:13:45;;;;;;;25.97;14.73;;;14.10;99.90;;;;;;10054655;29;20266;-93
2023/01/06 19:18:49;;;;;;;27.70;19.53;;;;;;;;;;10055081;29;20223;-93
2023/01/06 19:23:52;;;;;;;33.83;22.03;;;8.90;99.90;;;;;;10037720;29;20294;-91
2023/01/06 19:29:01;;;;;;;34.70;20.77;;;8.10;99.90;;;;;;10054379;29;20241;-87
2023/01/06 19:34:13;;;;;;;27.03;18.53;;;7.80;99.90;;;;;;10043391;29;20222;-89
2023/01/06 19:39:31;;;;;;;24.97;17.23;;;7.60;99.90;;;;;;10056224;29;20309;-90
2023/01/06 19:44:37;;;;;;;23.60;18.07;;;7.50;99.90;;;;;;10060561;29;20241;-90
2023/01/06 19:49:44;;;;;;;26.30;16.43;;;7.40;99.90;;;;;;10044782;29;20245;-91
2023/01/06 19:54:47;;;;;;;19.43;13.43;;;7.40;99.90;;;;;;10058191;29;20241;-88
2023/01/06 19:59:50;;;;;;;15.10;11.13;;;7.40;99.90;;;;;;10057594;29;20265;-89
2023/01/06 20:04:53;;;;;;;17.30;13.03;;;7.40;99.90;;;;;;10057145;29;20237;-90
2023/01/06 20:09:57;;;;;;;15.13;9.40;;;7.20;99.90;;;;;;10039849;29;20871;-90
2023/01/06 20:15:00;;;;;;;12.87;9.50;;;7.20;99.90;;;;;;9721068;29;10000533;-89
2023/01/06 20:20:04;;;;;;;14.53;8.70;;;9.40;99.90;;;;;;10055441;29;20260;-92
2023/01/06 20:25:07;;;;;;;10.27;7.50;;;10.30;99.90;;;;;;10051321;29;20240;-90
2023/01/06 20:30:10;;;;;;;11.97;7.33;;;10.40;99.90;;;;;;10053729;29;20313;-90
2023/01/06 20:35:14;;;;;;;11.53;8.33;;;10.50;99.90;;;;;;10038814;29;21009;-91
2023/01/06 20:40:18;;;;;;;11.13;8.20;;;10.70;99.90;;;;;;10053932;29;20273;-93
2023/01/06 20:45:21;;;;;;;20.27;11.70;;;11.20;99.90;;;;;;10056140;29;20320;-95
2023/01/06 20:50:26;;;;;;;16.70;10.33;;;11.50;99.90;;;;;;10028246;29;20229;-93
2023/01/06 20:55:29;;;;;;;13.07;8.40;;;11.60;99.90;;;;;;10057599;29;20219;-93
2023/01/06 21:00:33;;;;;;;11.97;8.93;;;11.50;99.90;;;;;;10052187;29;20272;-93
2023/01/06 21:05:36;;;;;;;11.93;7.97;;;11.50;99.90;;;;;;10054377;29;20226;-89
2023/01/06 21:10:39;;;;;;;11.80;9.30;;;11.20;99.90;;;;;;10053531;29;20296;-89
2023/01/06 21:15:42;;;;;;;14.87;8.77;;;11.20;99.90;;;;;;10039284;29;20687;-89
2023/01/06 21:20:48;;;;;;;13.80;8.40;;;11.20;99.90;;;;;;10052759;29;20264;-89
2023/01/06 21:25:50;;;;;;;11.10;7.40;;;11.10;99.90;;;;;;10039098;29;20641;-90
2023/01/06 21:30:53;;;;;;;8.33;7.47;;;11.80;99.90;;;;;;10055296;29;20233;-89
2023/01/06 21:35:56;;;;;;;14.97;8.87;;;12.00;99.90;;;;;;10051598;29;20610;-89
2023/01/06 21:46:20;;;;;;;9.97;8.60;;;12.10;99.90;;;;;;10057785;29;20201;-89
2023/01/06 21:51:25;;;;;;;11.17;7.43;;;12.30;99.90;;;;;;10084149;29;20237;-89
2023/01/06 21:56:28;;;;;;;11.60;6.77;;;12.20;99.90;;;;;;10054043;29;20221;-91
2023/01/06 22:01:30;;;;;;;8.87;6.77;;;12.20;99.90;;;;;;10038283;29;20282;-91
2023/01/06 22:06:35;;;;;;;7.67;6.40;;;12.20;99.90;;;;;;10055310;29;20207;-92
2023/01/06 22:11:39;;;;;;;7.70;6.27;;;12.40;99.90;;;;;;10063858;29;20585;-93
2023/01/06 22:16:42;;;;;;;14.20;7.17;;;12.40;99.90;;;;;;10037823;29;20214;-92
2023/01/06 22:21:45;;;;;;;8.47;6.63;;;12.30;99.90;;;;;;10055046;29;20230;-94
2023/01/06 22:26:48;;;;;;;11.90;8.03;;;12.20;99.90;;;;;;10054709;29;20235;-92
2023/01/06 22:31:50;;;;;;;7.70;6.63;;;11.60;99.90;;;;;;10058833;29;20262;-93
2023/01/06 22:36:53;;;;;;;9.40;6.90;;;11.40;99.90;;;;;;10062727;29;20222;-92
2023/01/06 22:41:56;;;;;;;10.97;8.13;;;11.00;99.90;;;;;;10059362;29;20296;-91
2023/01/06 22:46:58;;;;;;;9.10;7.07;;;10.80;99.90;;;;;;10039328;29;20544;-91
2023/01/06 22:52:01;;;;;;;15.40;8.10;;;10.80;99.90;;;;;;10059314;29;20259;-92
2023/01/06 22:57:03;;;;;;;11.17;7.60;;;10.70;99.90;;;;;;10058239;29;20217;-91
2023/01/06 23:02:06;;;;;;;8.27;6.73;;;10.30;99.90;;;;;;10057369;29;20218;-91
2023/01/06 23:07:09;;;;;;;10.23;7.77;;;10.30;99.90;;;;;;10057890;29;20576;-91
2023/01/06 23:12:11;;;;;;;10.63;7.03;;;10.20;99.90;;;;;;10050569;29;20252;-92
2023/01/06 23:17:14;;;;;;;11.17;6.97;;;9.70;99.90;;;;;;10062256;29;20227;-91
2023/01/06 23:22:16;;;;;;;10.57;7.37;;;10.10;99.90;;;;;;10067333;29;20234;-92
2023/01/06 23:27:19;;;;;;;8.60;6.70;;;10.40;99.90;;;;;;10065673;29;20676;-92
2023/01/06 23:32:21;;;;;;;9.63;7.17;;;10.30;99.90;;;;;;10057464;29;20222;-92
2023/01/06 23:37:24;;;;;;;10.03;8.00;;;9.90;99.90;;;;;;10056370;29;20680;-92
2023/01/06 23:42:26;;;;;;;11.27;8.30;;;8.60;99.90;;;;;;10095179;29;20225;-92
2023/01/06 23:47:31;;;;;;;11.87;8.10;;;7.90;99.90;;;;;;10094174;29;20235;-93
2023/01/06 23:52:34;;;;;;;13.90;9.83;;;7.40;99.90;;;;;;10108994;29;20198;-92
2023/01/06 23:57:36;;;;;;;17.00;10.97;;;7.20;99.90;;;;;;10085912;29;20254;-92
